createdAt,value
2022-10-03T00:00:21.888Z,11.50
2022-10-03T00:05:35.884Z,11.50
2022-10-03T00:11:11.537Z,11.50
2022-10-03T00:16:37.503Z,11.50
2022-10-03T00:22:10.563Z,11.50
2022-10-03T00:27:26.458Z,11.50
2022-10-03T00:33:05.494Z,11.40
2022-10-03T00:38:19.346Z,11.30
2022-10-03T00:43:30.176Z,11.30
2022-10-03T00:48:37.281Z,11.20
2022-10-03T00:53:53.914Z,11.10
2022-10-03T00:59:21.623Z,11.00
2022-10-03T01:04:48.764Z,11.00
2022-10-03T01:10:03.947Z,10.90
2022-10-03T01:15:36.754Z,10.90
2022-10-03T01:20:45.767Z,10.80
2022-10-03T01:26:11.993Z,10.70
2022-10-03T01:31:18.496Z,10.70
2022-10-03T01:36:41.196Z,10.60
2022-10-03T01:41:43.002Z,10.60
2022-10-03T01:46:53.640Z,10.50
2022-10-03T01:52:00.431Z,10.50
2022-10-03T01:57:23.655Z,10.30
2022-10-03T02:02:35.438Z,10.30
2022-10-03T02:08:02.028Z,10.30
2022-10-03T02:13:09.829Z,10.20
2022-10-03T02:18:28.545Z,10.20
2022-10-03T02:23:33.036Z,10.10
2022-10-03T02:29:08.929Z,10.00
2022-10-03T02:34:24.389Z,10.00
2022-10-03T02:39:41.216Z,10.00
2022-10-03T02:44:46.416Z,10.00
2022-10-03T02:50:19.138Z,10.10
2022-10-03T02:55:32.753Z,10.10
2022-10-03T03:01:11.939Z,10.10
2022-10-03T03:06:39.026Z,10.20
2022-10-03T03:12:18.236Z,10.30
2022-10-03T03:17:47.707Z,10.30
2022-10-03T03:23:28.111Z,10.30
2022-10-03T03:28:39.606Z,10.30
2022-10-03T03:34:16.279Z,10.30
2022-10-03T03:39:38.567Z,10.30
2022-10-03T03:45:04.906Z,10.30
2022-10-03T03:50:50.094Z,10.30
2022-10-03T03:56:10.809Z,10.30
2022-10-03T04:01:40.353Z,10.40
2022-10-03T04:06:56.326Z,10.30
2022-10-03T04:12:16.372Z,10.30
2022-10-03T04:18:15.553Z,10.30
2022-10-03T04:23:44.789Z,10.30
2022-10-03T04:29:04.500Z,10.30
2022-10-03T04:34:18.187Z,10.30
2022-10-03T04:39:29.238Z,10.30
2022-10-03T04:44:38.940Z,10.30
2022-10-03T04:49:52.995Z,10.30
2022-10-03T04:55:19.288Z,10.30
2022-10-03T05:00:45.928Z,10.20
2022-10-03T05:05:52.740Z,10.20
2022-10-03T05:11:18.985Z,10.10
2022-10-03T05:16:49.614Z,10.20
2022-10-03T05:22:01.909Z,10.20
2022-10-03T05:27:26.165Z,10.10
2022-10-03T05:32:33.360Z,10.20
2022-10-03T05:38:00.225Z,10.20
2022-10-03T05:43:22.013Z,10.20
2022-10-03T05:48:47.603Z,10.10
2022-10-03T05:54:33.774Z,10.20
2022-10-03T06:00:09.419Z,10.20
2022-10-03T06:05:44.008Z,10.20
2022-10-03T06:11:29.152Z,10.20
2022-10-03T06:16:52.060Z,10.10
2022-10-03T06:22:30.967Z,10.20
2022-10-03T06:27:49.514Z,10.20
2022-10-03T06:33:22.840Z,10.20
2022-10-03T06:38:48.980Z,10.20
2022-10-03T06:44:21.996Z,10.30
2022-10-03T06:49:41.847Z,10.30
2022-10-03T06:54:43.493Z,10.30
2022-10-03T06:59:57.687Z,10.50
2022-10-03T07:05:23.921Z,10.60
2022-10-03T07:10:48.720Z,10.70
2022-10-03T07:16:28.996Z,10.80
2022-10-03T07:21:48.783Z,11.00
2022-10-03T07:27:25.404Z,11.10
2022-10-03T07:32:29.857Z,11.20
2022-10-03T07:38:18.199Z,11.30
2022-10-03T07:43:44.505Z,11.40
2022-10-03T07:49:18.406Z,11.60
2022-10-03T07:54:26.219Z,11.70
2022-10-03T07:59:43.241Z,11.80
2022-10-03T08:04:56.698Z,11.90
2022-10-03T08:10:40.653Z,12.00
2022-10-03T08:15:51.656Z,12.00
2022-10-03T08:21:05.359Z,12.10
2022-10-03T08:26:29.464Z,12.30
2022-10-03T08:31:49.657Z,12.30
2022-10-03T08:37:20.865Z,12.40
2022-10-03T08:42:57.883Z,12.50
2022-10-03T08:48:24.651Z,12.50
2022-10-03T08:54:09.221Z,12.60
2022-10-03T08:59:21.418Z,12.70
2022-10-03T09:04:39.341Z,12.80
2022-10-03T09:10:08.807Z,12.80
2022-10-03T09:15:36.151Z,12.90
2022-10-03T09:21:06.317Z,13.00
2022-10-03T09:26:31.925Z,13.10
2022-10-03T09:32:07.540Z,13.20
2022-10-03T09:37:27.354Z,13.50
2022-10-03T09:42:51.411Z,13.60
2022-10-03T09:48:20.919Z,13.70
2022-10-03T09:53:30.171Z,13.90
2022-10-03T09:59:09.429Z,14.00
2022-10-03T10:04:55.495Z,14.20
2022-10-03T10:10:35.333Z,14.30
2022-10-03T10:15:49.833Z,14.30
2022-10-03T10:20:54.778Z,14.20
2022-10-03T10:25:59.268Z,14.30
2022-10-03T10:31:19.346Z,14.30
2022-10-03T10:37:18.545Z,14.40
2022-10-03T10:42:32.496Z,14.40
2022-10-03T10:47:52.913Z,14.40
2022-10-03T10:53:40.064Z,14.60
2022-10-03T10:59:16.326Z,14.70
2022-10-03T11:05:15.314Z,14.70
2022-10-03T11:10:38.712Z,14.70
2022-10-03T11:16:14.594Z,14.60
2022-10-03T11:21:19.303Z,14.60
2022-10-03T11:27:13.471Z,14.60
2022-10-03T11:32:51.891Z,14.70
2022-10-03T11:38:16.352Z,14.80
2022-10-03T11:43:48.452Z,14.80
2022-10-03T11:49:26.363Z,14.90
2022-10-03T11:54:35.042Z,14.90
2022-10-03T12:00:14.116Z,14.90
2022-10-03T12:05:24.233Z,15.00
2022-10-03T12:10:55.717Z,15.20
2022-10-03T12:15:58.840Z,15.20
2022-10-03T12:21:33.154Z,15.20
2022-10-03T12:26:45.530Z,15.20
2022-10-03T12:32:05.801Z,15.20
2022-10-03T12:37:41.974Z,15.20
2022-10-03T12:42:49.716Z,15.20
2022-10-03T12:48:16.298Z,15.20
2022-10-03T12:53:17.868Z,15.30
2022-10-03T12:58:34.405Z,15.30
2022-10-03T13:03:56.066Z,15.30
2022-10-03T13:09:16.120Z,15.50
2022-10-03T13:14:49.919Z,15.70
2022-10-03T13:19:56.621Z,15.80
2022-10-03T13:25:14.665Z,15.80
2022-10-03T13:30:24.419Z,16.00
2022-10-03T13:35:58.360Z,16.10
2022-10-03T13:41:25.403Z,16.20
2022-10-03T13:47:07.870Z,16.30
2022-10-03T13:52:38.140Z,16.40
2022-10-03T13:58:05.473Z,16.30
2022-10-03T14:03:26.215Z,16.20
2022-10-03T14:08:46.526Z,16.10
2022-10-03T14:14:05.462Z,16.10
2022-10-03T14:19:07.114Z,16.00
2022-10-03T14:24:36.930Z,16.00
2022-10-03T14:30:01.971Z,16.10
2022-10-03T14:35:30.472Z,16.10
2022-10-03T14:41:01.023Z,16.30
2022-10-03T14:46:06.571Z,16.30
2022-10-03T14:51:36.181Z,16.30
2022-10-03T14:56:46.798Z,16.40
2022-10-03T15:01:53.694Z,16.50
2022-10-03T15:07:04.371Z,16.50
2022-10-03T15:12:34.255Z,16.50
2022-10-03T15:17:57.367Z,16.50
2022-10-03T15:23:01.091Z,16.40
2022-10-03T15:28:35.828Z,16.30
2022-10-03T15:33:39.172Z,16.30
2022-10-03T15:38:46.575Z,16.30
2022-10-03T15:44:00.688Z,16.30
2022-10-03T15:49:08.820Z,16.20
2022-10-03T15:54:20.993Z,16.20
2022-10-03T15:59:34.481Z,16.20
2022-10-03T16:04:38.249Z,16.10
2022-10-03T16:10:00.972Z,16.00
2022-10-03T16:15:28.449Z,16.00
2022-10-03T16:20:41.600Z,15.90
2022-10-03T16:25:53.302Z,15.80
2022-10-03T16:31:03.083Z,15.80
2022-10-03T16:36:10.144Z,15.70
2022-10-03T16:41:18.061Z,15.70
2022-10-03T16:46:20.530Z,15.60
2022-10-03T16:51:36.068Z,15.50
2022-10-03T16:56:43.822Z,15.40
2022-10-03T17:01:51.510Z,15.30
2022-10-03T17:06:58.613Z,15.20
2022-10-03T17:12:01.792Z,15.10
2022-10-03T17:17:08.754Z,15.00
2022-10-03T17:22:17.700Z,15.00
2022-10-03T17:27:31.915Z,14.80
2022-10-03T17:32:38.443Z,14.80
2022-10-03T17:38:47.781Z,14.60
2022-10-03T17:44:14.483Z,14.50
2022-10-03T17:49:50.160Z,14.40
2022-10-03T17:54:57.457Z,14.30
2022-10-03T18:00:17.792Z,14.20
2022-10-03T18:05:35.763Z,14.20
2022-10-03T18:10:39.836Z,14.10
2022-10-03T18:15:48.053Z,14.00
2022-10-03T18:21:19.691Z,13.90
2022-10-03T18:26:47.344Z,13.80
2022-10-03T18:32:22.503Z,13.70
2022-10-03T18:37:26.942Z,13.70
2022-10-03T18:42:29.762Z,13.60
2022-10-03T18:47:50.742Z,13.60
2022-10-03T18:53:20.603Z,13.50
2022-10-03T18:58:35.689Z,13.40
2022-10-03T19:04:01.653Z,13.30
2022-10-03T19:09:34.523Z,13.30
2022-10-03T19:15:11.542Z,13.20
2022-10-03T19:20:27.507Z,13.10
2022-10-03T19:25:30.344Z,13.00
2022-10-03T19:30:33.119Z,13.00
2022-10-03T19:35:40.308Z,12.90
2022-10-03T19:40:52.969Z,12.90
2022-10-03T19:46:22.684Z,12.80
2022-10-03T19:51:26.307Z,12.80
2022-10-03T19:56:32.407Z,12.60
2022-10-03T20:01:49.090Z,12.60
2022-10-03T20:06:52.024Z,12.60
2022-10-03T20:12:11.258Z,12.60
2022-10-03T20:17:22.934Z,12.50
2022-10-03T20:22:28.994Z,12.50
2022-10-03T20:27:56.333Z,12.50
2022-10-03T20:32:59.548Z,12.40
2022-10-03T20:38:22.996Z,12.40
2022-10-03T20:43:45.988Z,12.40
2022-10-03T20:49:10.960Z,12.30
2022-10-03T20:54:14.833Z,12.20
2022-10-03T20:59:18.142Z,12.20
2022-10-03T21:04:33.758Z,12.10
2022-10-03T21:09:45.002Z,12.00
2022-10-03T21:14:52.630Z,11.90
2022-10-03T21:19:59.164Z,11.90
2022-10-03T21:25:07.588Z,11.80
2022-10-03T21:30:18.883Z,11.80
2022-10-03T21:35:41.660Z,11.70
2022-10-03T21:41:20.579Z,11.70
2022-10-03T21:46:44.284Z,11.60
2022-10-03T21:51:49.340Z,11.50
2022-10-03T21:57:19.539Z,11.50
2022-10-03T22:02:38.283Z,11.40
2022-10-03T22:07:42.246Z,11.40
2022-10-03T22:12:49.412Z,11.40
2022-10-03T22:18:19.345Z,11.30
2022-10-03T22:23:46.533Z,11.20
2022-10-03T22:29:01.562Z,11.20
2022-10-03T22:34:15.351Z,11.20
2022-10-03T22:39:19.079Z,11.10
2022-10-03T22:44:25.242Z,11.10
2022-10-03T22:49:45.050Z,10.90
2022-10-03T22:54:50.630Z,10.90
2022-10-03T23:00:07.957Z,10.80
2022-10-03T23:05:39.553Z,10.80
2022-10-03T23:11:02.764Z,10.70
2022-10-03T23:16:10.615Z,10.70
2022-10-03T23:21:12.723Z,10.70
2022-10-03T23:26:33.009Z,10.70
2022-10-03T23:32:12.127Z,10.60
2022-10-03T23:37:14.796Z,10.60
2022-10-03T23:42:31.564Z,10.60
2022-10-03T23:47:41.378Z,10.60
2022-10-03T23:52:47.505Z,10.50
2022-10-03T23:57:49.409Z,10.40
